This is the latest recevied weather packets stored in our database for station/object WC4PEM-1. If no packets are shown the sender has not sent any weather packets the latest 10 day(s).
| Time | Temp. | Humidity | Pressure | Rain* | Wind** | Luminosity | Snow |
|---|---|---|---|---|---|---|---|
| 1777905507 | 24.44° C | 56% | 1016.4 hPa | 0 mm | - | 722 W/m² | - |
| 1777905206 | 24.44° C | 56% | 1016.5 hPa | 0 mm | - | 701 W/m² | - |
| 1777904907 | 24.44° C | 58% | 1016.4 hPa | 0 mm | - | 679 W/m² | - |
| 1777904607 | 24.44° C | 56% | 1016.4 hPa | 0 mm | - | 666 W/m² | - |
| 1777904307 | 24.44° C | 56% | 1016.4 hPa | 0 mm | - | 636 W/m² | - |
| 1777904006 | 24.44° C | 57% | 1016.3 hPa | 0 mm | - | 566 W/m² | - |
| 1777903941 | 23.33° C | 63% | 1016.3 hPa | 0 mm | - | 102 W/m² | - |
| 1777903707 | 23.89° C | 57% | 1016.3 hPa | 0 mm | - | 515 W/m² | - |
| 1777903406 | 23.33° C | 60% | 1016.4 hPa | 0 mm | - | 499 W/m² | - |
| 1777903107 | 23.33° C | 62% | 1016.4 hPa | 0 mm | - | 457 W/m² | - |
| 1777902807 | 23.33° C | 63% | 1016.3 hPa | 0 mm | - | 102 W/m² | - |
| 1777902507 | 23.33° C | 64% | 1016.3 hPa | 0 mm | - | 63 W/m² | - |
| 1777902207 | 23.33° C | 67% | 1016.3 hPa | 0 mm | - | 63 W/m² | - |
| 1777901907 | 22.78° C | 65% | 1016.2 hPa | 0 mm | - | 63 W/m² | - |
| 1777901607 | 22.78° C | 66% | 1016.1 hPa | 0 mm | - | 62 W/m² | - |
| 1777901307 | 22.78° C | 67% | 1016.1 hPa | 0 mm | - | 62 W/m² | - |
| 1777901007 | 22.22° C | 67% | 1016.1 hPa | 0 mm | - | 62 W/m² | - |
| 1777900707 | 22.22° C | 67% | 1016.1 hPa | 0 mm | - | 62 W/m² | - |
| 1777900407 | 22.22° C | 67% | 1016 hPa | 0 mm | - | 60 W/m² | - |
| 1777900107 | 22.22° C | 69% | 1016 hPa | 0 mm | - | 60 W/m² | - |
| 1777899807 | 21.67° C | 69% | 1015.9 hPa | 0 mm | - | 58 W/m² | - |
| 1777899507 | 21.67° C | 69% | 1015.9 hPa | 0 mm | - | 58 W/m² | - |
| 1777899496 | 21.67° C | 69% | 1015.9 hPa | 0 mm | - | 58 W/m² | - |
| 1777899207 | 21.67° C | 69% | 1015.9 hPa | 0 mm | - | 58 W/m² | - |
| 1777898907 | 21.67° C | 70% | 1015.9 hPa | 0 mm | - | 58 W/m² | - |
* Rain latest hour (hover to see other rain measurements)
** Current wind speed in m/s (hover to see current wind gust speed)